createdAt,value
2019-01-09T00:00:49.493Z,7.40
2019-01-09T00:01:49.465Z,12.70
2019-01-09T00:02:49.446Z,11.70
2019-01-09T00:03:49.429Z,15.10
2019-01-09T00:04:49.397Z,14.80
2019-01-09T00:05:49.384Z,13.30
2019-01-09T00:06:49.343Z,11.70
2019-01-09T00:07:49.319Z,15.90
2019-01-09T00:08:49.287Z,15.10
2019-01-09T00:09:49.268Z,12.80
2019-01-09T00:10:49.243Z,15.50
2019-01-09T00:11:49.217Z,12.30
2019-01-09T00:12:49.244Z,11.20
2019-01-09T00:13:49.160Z,10.00
2019-01-09T00:14:49.135Z,11.30
2019-01-09T00:15:49.108Z,11.90
2019-01-09T00:16:49.083Z,14.20
2019-01-09T00:17:49.059Z,12.00
2019-01-09T00:18:49.033Z,18.00
2019-01-09T00:19:49.022Z,13.50
2019-01-09T00:20:48.989Z,20.40
2019-01-09T00:21:48.965Z,13.50
2019-01-09T00:22:48.932Z,13.90
2019-01-09T00:23:48.920Z,13.00
2019-01-09T00:24:48.884Z,15.90
2019-01-09T00:25:48.853Z,18.00
2019-01-09T00:26:48.827Z,12.70
2019-01-09T00:27:48.811Z,13.00
2019-01-09T00:28:48.776Z,13.30
2019-01-09T00:29:48.760Z,13.30
2019-01-09T00:30:48.725Z,10.20
2019-01-09T00:31:48.696Z,11.10
2019-01-09T00:32:48.673Z,16.90
2019-01-09T00:33:48.647Z,15.30
2019-01-09T00:34:48.620Z,16.80
2019-01-09T00:35:48.595Z,14.40
2019-01-09T00:36:48.570Z,14.50
2019-01-09T00:37:48.543Z,18.00
2019-01-09T00:38:48.526Z,19.40
2019-01-09T00:39:48.494Z,17.40
2019-01-09T00:40:48.466Z,18.50
2019-01-09T00:41:48.441Z,16.80
2019-01-09T00:42:48.416Z,12.90
2019-01-09T00:43:48.397Z,19.20
2019-01-09T00:44:48.362Z,15.70
2019-01-09T00:45:48.340Z,16.20
2019-01-09T00:46:48.323Z,21.00
2019-01-09T00:47:48.298Z,12.70
2019-01-09T00:48:48.260Z,14.00
2019-01-09T00:49:48.237Z,17.20
2019-01-09T00:50:48.217Z,20.40
2019-01-09T00:51:48.182Z,16.10
2019-01-09T00:52:48.156Z,14.80
2019-01-09T00:53:48.133Z,18.20
2019-01-09T00:54:48.108Z,18.50
2019-01-09T00:55:48.078Z,12.00
2019-01-09T00:56:48.053Z,15.30
2019-01-09T00:57:48.027Z,15.90
2019-01-09T00:58:48.003Z,18.90
2019-01-09T00:59:47.976Z,16.90
2019-01-09T01:00:47.950Z,15.90
2019-01-09T01:01:47.943Z,13.60
2019-01-09T01:02:47.900Z,17.60
2019-01-09T01:03:48.484Z,17.00
2019-01-09T01:04:47.856Z,14.70
2019-01-09T01:05:47.823Z,15.80
2019-01-09T01:06:47.807Z,16.80
2019-01-09T01:07:47.771Z,15.20
2019-01-09T01:08:47.754Z,16.80
2019-01-09T01:09:47.720Z,12.60
2019-01-09T01:10:47.779Z,17.30
2019-01-09T01:11:47.666Z,15.60
2019-01-09T01:12:47.641Z,11.40
2019-01-09T01:13:47.619Z,14.70
2019-01-09T01:14:47.590Z,12.60
2019-01-09T01:15:47.562Z,15.80
2019-01-09T01:16:47.545Z,10.30
2019-01-09T01:17:47.511Z,16.20
2019-01-09T01:18:47.487Z,12.20
2019-01-09T01:19:47.465Z,12.00
2019-01-09T01:20:47.443Z,12.00
2019-01-09T01:21:47.410Z,15.00
2019-01-09T01:22:47.387Z,12.10
2019-01-09T01:23:47.356Z,15.40
2019-01-09T01:24:47.332Z,11.10
2019-01-09T01:25:47.304Z,13.80
2019-01-09T01:26:47.279Z,14.20
2019-01-09T01:27:47.252Z,18.20
2019-01-09T01:28:47.227Z,16.00
2019-01-09T01:29:47.201Z,16.30
2019-01-09T01:30:47.176Z,13.50
2019-01-09T01:31:47.152Z,13.20
2019-01-09T01:32:47.123Z,16.00
2019-01-09T01:33:47.098Z,18.40
2019-01-09T01:34:47.087Z,17.40
2019-01-09T01:35:54.481Z,18.50
2019-01-09T01:36:47.020Z,24.30
2019-01-09T01:37:47.003Z,19.40
2019-01-09T01:38:46.969Z,16.50
2019-01-09T01:41:46.917Z,23.40
2019-01-09T01:42:46.885Z,20.00
2019-01-09T01:43:46.859Z,18.90
2019-01-09T01:44:46.833Z,17.30
2019-01-09T01:45:46.813Z,20.90
2019-01-09T01:48:51.157Z,19.20
2019-01-09T01:49:31.928Z,21.20
2019-01-09T01:50:31.902Z,16.80
2019-01-09T01:51:31.878Z,21.60
2019-01-09T01:52:31.849Z,20.70
2019-01-09T01:53:31.834Z,16.80
2019-01-09T01:54:31.801Z,17.00
2019-01-09T01:55:31.773Z,13.80
2019-01-09T01:56:31.750Z,19.80
2019-01-09T01:57:31.720Z,19.20
2019-01-09T01:58:31.694Z,16.60
2019-01-09T01:59:31.669Z,15.40
2019-01-09T02:00:31.642Z,13.90
2019-01-09T02:01:31.617Z,18.90
2019-01-09T02:02:31.592Z,18.40
2019-01-09T02:03:31.565Z,17.60
2019-01-09T02:04:31.539Z,14.70
2019-01-09T02:05:31.512Z,17.80
2019-01-09T02:06:31.486Z,13.70
2019-01-09T02:07:31.461Z,17.30
2019-01-09T02:08:31.436Z,17.50
2019-01-09T02:09:31.410Z,14.50
2019-01-09T02:10:31.385Z,18.60
2019-01-09T02:11:31.357Z,16.40
2019-01-09T02:12:31.330Z,16.40
2019-01-09T02:13:31.307Z,13.20
2019-01-09T02:22:31.680Z,12.40
2019-01-09T02:22:32.627Z,13.20
2019-01-09T02:23:32.597Z,16.40
2019-01-09T02:24:32.572Z,13.00
2019-01-09T02:26:05.754Z,16.70
2019-01-09T02:26:32.522Z,13.40
2019-01-09T02:28:05.701Z,12.90
2019-01-09T02:30:17.908Z,14.40
2019-01-09T02:31:17.900Z,13.40
2019-01-09T02:32:17.858Z,13.60
2019-01-09T02:33:17.831Z,14.60
2019-01-09T02:34:17.811Z,15.00
2019-01-09T02:35:50.989Z,14.00
2019-01-09T02:36:17.753Z,18.90
2019-01-09T02:37:50.935Z,13.80
2019-01-09T02:40:36.302Z,19.70
2019-01-09T02:41:02.965Z,15.60
2019-01-09T02:42:02.939Z,18.00
2019-01-09T02:43:02.914Z,18.00
2019-01-09T02:44:36.097Z,20.70
2019-01-09T02:45:02.860Z,20.70
2019-01-09T02:46:36.055Z,18.80
2019-01-09T02:49:21.513Z,17.70
2019-01-09T02:49:48.278Z,16.70
2019-01-09T02:50:48.252Z,23.20
2019-01-09T02:51:48.226Z,17.40
2019-01-09T02:53:21.457Z,23.10
2019-01-09T02:53:48.183Z,20.40
2019-01-09T02:55:21.360Z,23.60
2019-01-09T02:58:06.827Z,17.30
2019-01-09T02:58:33.593Z,19.60
2019-01-09T03:00:06.784Z,19.20
2019-01-09T03:01:06.751Z,22.10
2019-01-09T03:01:33.513Z,19.90
2019-01-09T03:03:06.698Z,25.30
2019-01-09T03:05:51.969Z,21.40
2019-01-09T03:06:23.051Z,23.70
2019-01-09T03:09:36.905Z,16.10
2019-01-09T03:10:03.670Z,17.50
2019-01-09T03:13:22.045Z,14.70
2019-01-09T03:13:48.810Z,22.30
2019-01-09T03:17:07.183Z,20.70
2019-01-09T03:17:33.947Z,16.80
2019-01-09T03:20:52.225Z,18.60
2019-01-09T03:21:18.988Z,15.80
2019-01-09T03:24:37.365Z,13.00
2019-01-09T03:25:04.127Z,12.00
2019-01-09T04:34:27.081Z,10.90
2019-01-09T04:35:54.004Z,12.60
2019-01-09T04:38:05.851Z,13.20
2019-01-09T04:39:39.036Z,14.70
2019-01-09T04:41:51.039Z,19.00
2019-01-09T04:43:24.221Z,14.80
2019-01-09T04:45:36.025Z,12.00
2019-01-09T04:47:09.214Z,18.30
2019-01-09T04:49:21.115Z,14.70
2019-01-09T04:50:54.295Z,17.20
2019-01-09T05:28:46.504Z,17.50
2019-01-09T05:29:06.998Z,18.20
2019-01-09T05:30:06.980Z,24.50
2019-01-09T05:31:07.743Z,27.90
2019-01-09T05:32:06.922Z,18.50
2019-01-09T05:33:06.893Z,22.80
2019-01-09T05:34:06.866Z,26.10
2019-01-09T05:35:06.841Z,20.70
2019-01-09T05:36:06.815Z,27.50
2019-01-09T05:37:09.574Z,24.70
2019-01-09T05:38:06.762Z,23.10
2019-01-09T05:39:06.738Z,23.70
2019-01-09T05:40:06.726Z,24.40
2019-01-09T05:41:06.685Z,28.80
2019-01-09T05:42:06.656Z,23.70
2019-01-09T05:43:06.733Z,27.40
2019-01-09T05:44:06.605Z,29.60
2019-01-09T05:45:06.578Z,22.10
2019-01-09T05:46:06.554Z,29.20
2019-01-09T05:47:06.525Z,25.40
2019-01-09T05:48:06.499Z,24.70
2019-01-09T05:49:06.478Z,25.70
2019-01-09T05:50:06.453Z,30.80
2019-01-09T05:51:06.433Z,25.60
2019-01-09T05:52:06.395Z,27.70
2019-01-09T05:53:06.368Z,24.40
2019-01-09T05:54:06.350Z,28.10
2019-01-09T05:55:06.317Z,18.50
2019-01-09T05:56:06.289Z,27.60
2019-01-09T05:57:06.263Z,24.50
2019-01-09T05:58:06.238Z,23.90
2019-01-09T05:59:06.216Z,32.50
2019-01-09T06:00:06.185Z,29.60
2019-01-09T06:01:06.159Z,30.50
2019-01-09T06:02:06.134Z,23.60
2019-01-09T06:03:06.110Z,33.80
2019-01-09T06:04:06.081Z,29.20
2019-01-09T06:05:06.053Z,26.50
2019-01-09T06:06:06.028Z,32.00
2019-01-09T06:07:06.011Z,28.50
2019-01-09T06:08:05.978Z,22.90
2019-01-09T06:09:05.952Z,24.20
2019-01-09T06:10:05.924Z,29.90
2019-01-09T06:11:05.904Z,26.10
2019-01-09T06:12:05.875Z,30.60
2019-01-09T06:13:05.843Z,38.80
2019-01-09T06:14:05.823Z,27.60
2019-01-09T06:15:05.796Z,28.70
2019-01-09T06:16:05.764Z,28.20
2019-01-09T06:17:05.738Z,27.00
2019-01-09T06:18:05.712Z,28.00
2019-01-09T06:19:05.685Z,25.00
2019-01-09T06:20:05.661Z,31.00
2019-01-09T06:21:05.632Z,27.50
2019-01-09T06:22:05.608Z,25.50
2019-01-09T06:23:05.583Z,30.10
2019-01-09T06:24:05.553Z,30.60
2019-01-09T06:25:05.528Z,24.60
2019-01-09T06:26:05.509Z,30.30
2019-01-09T06:27:05.474Z,34.50
2019-01-09T06:28:05.455Z,26.90
2019-01-09T06:29:05.420Z,21.50
2019-01-09T06:30:05.396Z,32.80
2019-01-09T06:31:05.366Z,36.40
2019-01-09T06:32:05.342Z,29.40
2019-01-09T06:33:05.316Z,25.20
2019-01-09T06:34:05.290Z,32.30
2019-01-09T06:35:05.271Z,29.10
2019-01-09T06:36:05.237Z,31.70
2019-01-09T06:37:05.219Z,28.10
2019-01-09T06:38:05.185Z,28.40
2019-01-09T06:39:05.157Z,25.20
2019-01-09T06:40:05.130Z,32.30
2019-01-09T06:41:05.103Z,32.30
2019-01-09T06:42:05.077Z,29.50
2019-01-09T06:43:05.051Z,32.10
2019-01-09T06:44:05.025Z,31.60
2019-01-09T06:45:04.999Z,25.80
2019-01-09T06:46:04.980Z,26.10
2019-01-09T06:47:04.949Z,31.20
2019-01-09T06:48:04.926Z,27.00
2019-01-09T06:49:04.894Z,35.40
2019-01-09T06:50:04.870Z,33.60
2019-01-09T06:51:04.842Z,28.70
2019-01-09T06:52:04.816Z,33.60
2019-01-09T06:53:04.825Z,22.60
2019-01-09T06:54:04.801Z,29.20
2019-01-09T06:55:04.745Z,28.30
2019-01-09T06:56:04.758Z,27.70
2019-01-09T06:57:04.690Z,22.20
2019-01-09T06:58:04.658Z,28.90
2019-01-09T06:59:04.648Z,20.10
2019-01-09T07:00:04.609Z,31.30
2019-01-09T07:01:04.588Z,29.20
2019-01-09T07:02:04.563Z,21.50
2019-01-09T07:03:04.530Z,27.70
2019-01-09T07:04:04.514Z,22.00
2019-01-09T07:05:04.477Z,30.50
2019-01-09T07:06:04.457Z,22.60
2019-01-09T07:07:04.422Z,16.70
2019-01-09T07:08:04.406Z,26.60
2019-01-09T07:09:04.370Z,23.30
2019-01-09T07:10:04.345Z,23.70
2019-01-09T07:11:04.319Z,22.90
2019-01-09T07:12:04.293Z,27.10
2019-01-09T07:13:04.267Z,20.90
2019-01-09T07:14:04.240Z,21.20
2019-01-09T07:15:11.483Z,27.40
2019-01-09T07:16:04.188Z,29.40
2019-01-09T07:17:04.162Z,23.50
2019-01-09T07:18:04.135Z,29.10
2019-01-09T07:19:04.122Z,29.20
2019-01-09T07:20:04.082Z,22.20
2019-01-09T07:21:04.056Z,24.50
2019-01-09T07:22:04.031Z,24.70
2019-01-09T07:23:04.005Z,24.40
2019-01-09T07:24:03.986Z,26.20
2019-01-09T07:25:03.958Z,28.50
2019-01-09T07:26:03.927Z,31.20
2019-01-09T07:27:03.901Z,21.60
2019-01-09T07:28:03.926Z,23.50
2019-01-09T07:29:03.867Z,28.50
2019-01-09T07:30:03.820Z,25.90
2019-01-09T07:31:03.794Z,23.70
2019-01-09T07:32:03.775Z,23.90
2019-01-09T07:33:03.740Z,23.30
2019-01-09T07:34:03.728Z,31.70
2019-01-09T07:35:03.690Z,24.20
2019-01-09T07:36:03.662Z,31.30
2019-01-09T07:37:03.635Z,30.10
2019-01-09T07:38:03.617Z,22.60
2019-01-09T07:39:03.599Z,23.20
2019-01-09T07:40:03.559Z,26.50
2019-01-09T07:41:03.532Z,22.70
2019-01-09T07:42:03.516Z,25.20
2019-01-09T07:43:03.482Z,22.60
2019-01-09T07:44:03.452Z,27.00
2019-01-09T07:45:03.422Z,26.60
2019-01-09T07:46:03.404Z,25.90
2019-01-09T07:47:03.380Z,21.30
2019-01-09T07:48:03.346Z,21.20
2019-01-09T07:49:03.360Z,24.30
2019-01-09T07:50:03.291Z,25.60
2019-01-09T07:51:03.272Z,26.40
2019-01-09T07:52:03.246Z,22.10
2019-01-09T07:53:03.211Z,24.10
2019-01-09T07:54:03.185Z,19.90
2019-01-09T07:55:03.165Z,28.40
2019-01-09T07:56:03.137Z,16.20
2019-01-09T07:57:03.104Z,25.20
2019-01-09T07:58:03.077Z,19.80
2019-01-09T07:59:03.051Z,18.60
2019-01-09T08:00:03.026Z,20.60
2019-01-09T08:01:03.005Z,24.70
2019-01-09T08:02:02.971Z,21.20
2019-01-09T08:03:02.950Z,18.30
2019-01-09T08:04:02.927Z,17.10
2019-01-09T08:05:02.892Z,19.40
2019-01-09T08:06:02.865Z,19.90
2019-01-09T08:07:02.843Z,24.00
2019-01-09T08:08:02.819Z,22.70
2019-01-09T08:09:02.851Z,15.20
2019-01-09T08:10:02.766Z,11.30
2019-01-09T08:11:02.735Z,14.30
2019-01-09T08:12:02.703Z,18.40
2019-01-09T08:13:02.683Z,16.50
2019-01-09T08:14:02.650Z,19.70
2019-01-09T08:15:02.628Z,17.20
2019-01-09T08:16:02.629Z,17.60
2019-01-09T08:17:02.569Z,12.70
2019-01-09T08:18:02.544Z,17.70
2019-01-09T08:19:02.526Z,19.00
2019-01-09T08:20:02.496Z,16.20
2019-01-09T08:21:05.551Z,19.30
2019-01-09T08:22:02.451Z,17.80
2019-01-09T08:23:02.410Z,17.80
2019-01-09T08:24:02.390Z,17.00
2019-01-09T08:25:02.359Z,19.20
2019-01-09T08:26:02.335Z,17.70
2019-01-09T08:27:02.313Z,14.70
2019-01-09T08:28:02.340Z,24.90
2019-01-09T08:29:02.254Z,20.20
2019-01-09T08:30:02.230Z,22.30
2019-01-09T08:31:02.209Z,17.10
2019-01-09T08:32:02.178Z,12.00
2019-01-09T08:33:02.151Z,15.10
2019-01-09T08:34:02.132Z,13.60
2019-01-09T08:35:02.096Z,11.20
2019-01-09T08:36:02.068Z,18.10
2019-01-09T08:37:02.052Z,16.40
2019-01-09T08:38:02.939Z,14.20
2019-01-09T08:39:01.994Z,13.00
2019-01-09T08:40:01.962Z,16.50
2019-01-09T08:41:01.939Z,11.60
2019-01-09T08:42:01.910Z,16.60
2019-01-09T08:43:01.885Z,16.30
2019-01-09T08:44:01.861Z,13.40
2019-01-09T08:45:01.836Z,9.20
2019-01-09T08:46:01.805Z,14.30
2019-01-09T08:47:01.780Z,14.80
2019-01-09T08:48:01.771Z,12.40
2019-01-09T08:49:01.729Z,13.70
2019-01-09T08:50:01.705Z,12.30
2019-01-09T08:51:01.727Z,10.90
2019-01-09T08:52:01.660Z,12.10
2019-01-09T08:53:01.633Z,14.10
2019-01-09T08:54:01.602Z,15.10
2019-01-09T08:55:01.581Z,17.20
2019-01-09T08:56:01.548Z,10.20
2019-01-09T08:57:01.522Z,15.80
2019-01-09T08:58:01.497Z,11.50
2019-01-09T08:59:01.473Z,15.30
2019-01-09T09:00:01.452Z,12.30
2019-01-09T09:01:01.428Z,10.90
2019-01-09T09:02:01.393Z,18.40
2019-01-09T09:03:01.368Z,11.40
2019-01-09T09:04:01.344Z,10.90
2019-01-09T09:05:01.321Z,14.40
2019-01-09T09:06:01.291Z,8.70
2019-01-09T09:07:01.277Z,11.50
2019-01-09T09:08:01.249Z,11.80
2019-01-09T09:09:01.223Z,13.90
2019-01-09T09:10:01.199Z,15.60
2019-01-09T09:11:01.163Z,13.40
2019-01-09T09:12:01.152Z,13.00
2019-01-09T09:13:01.112Z,10.50
2019-01-09T09:14:01.090Z,7.80
2019-01-09T09:15:01.224Z,19.50
2019-01-09T09:16:01.051Z,13.40
2019-01-09T09:17:01.017Z,10.30
2019-01-09T09:18:01.160Z,13.10
2019-01-09T09:19:00.979Z,10.80
2019-01-09T09:20:00.936Z,11.80
2019-01-09T09:21:00.910Z,8.90
2019-01-09T09:22:00.884Z,15.50
2019-01-09T09:23:00.867Z,12.00
2019-01-09T09:24:00.839Z,11.20
2019-01-09T09:25:00.809Z,11.90
2019-01-09T09:26:00.800Z,13.00
2019-01-09T09:27:00.758Z,12.90
2019-01-09T09:28:00.734Z,11.00
2019-01-09T09:29:00.709Z,12.40
2019-01-09T09:30:00.685Z,12.10
2019-01-09T09:31:00.665Z,13.80
2019-01-09T09:32:00.648Z,13.70
2019-01-09T09:33:00.607Z,15.80
2019-01-09T09:34:00.579Z,10.00
2019-01-09T09:35:00.555Z,12.40
2019-01-09T09:36:00.530Z,11.00
2019-01-09T09:37:00.504Z,11.20
2019-01-09T09:38:00.479Z,10.60
2019-01-09T09:39:00.458Z,15.00
2019-01-09T09:40:00.446Z,14.10
2019-01-09T09:41:00.419Z,9.40
2019-01-09T09:42:00.386Z,8.50
2019-01-09T09:43:00.404Z,9.80
2019-01-09T09:44:00.327Z,11.50
2019-01-09T09:45:00.300Z,12.50
2019-01-09T09:46:00.341Z,13.00
2019-01-09T09:47:00.248Z,12.00
2019-01-09T09:48:00.232Z,12.90
2019-01-09T09:49:00.203Z,12.10
2019-01-09T09:50:00.287Z,13.20
2019-01-09T09:51:00.145Z,9.30
2019-01-09T09:52:00.124Z,11.00
2019-01-09T09:53:00.102Z,10.00
2019-01-09T09:54:00.069Z,16.70
2019-01-09T09:55:00.049Z,12.80
2019-01-09T09:56:00.018Z,13.10
2019-01-09T09:56:59.996Z,9.60
2019-01-09T09:58:05.666Z,10.80
2019-01-09T09:58:59.940Z,17.70
2019-01-09T09:59:59.920Z,12.60
2019-01-09T10:00:59.889Z,14.00
2019-01-09T10:01:59.864Z,11.90
2019-01-09T10:02:59.838Z,9.60
2019-01-09T10:03:59.814Z,13.20
2019-01-09T10:04:59.786Z,16.00
2019-01-09T10:05:59.761Z,15.00
2019-01-09T10:06:59.740Z,14.10
2019-01-09T10:07:59.714Z,12.60
2019-01-09T10:08:59.680Z,8.80
2019-01-09T10:09:59.654Z,15.50
2019-01-09T10:10:59.635Z,14.10
2019-01-09T10:11:59.614Z,20.40
2019-01-09T10:12:59.578Z,10.60
2019-01-09T10:13:59.551Z,10.40
2019-01-09T10:14:59.526Z,10.90
2019-01-09T10:15:59.511Z,12.10
2019-01-09T10:16:59.481Z,14.90
2019-01-09T10:17:59.449Z,15.00
2019-01-09T10:18:59.432Z,12.10
2019-01-09T10:19:59.398Z,16.90
2019-01-09T10:20:59.373Z,10.80
2019-01-09T10:21:59.357Z,12.50
2019-01-09T10:22:59.319Z,15.80
2019-01-09T10:23:59.301Z,13.40
2019-01-09T10:24:59.270Z,9.30
2019-01-09T10:25:59.244Z,10.90
2019-01-09T10:26:59.232Z,15.40
2019-01-09T10:27:59.193Z,11.90
2019-01-09T10:28:59.166Z,11.50
2019-01-09T10:29:59.148Z,11.70
2019-01-09T10:30:59.121Z,14.40
2019-01-09T10:31:59.298Z,13.20
2019-01-09T10:32:59.064Z,21.90
2019-01-09T10:33:59.045Z,17.80
2019-01-09T10:34:59.022Z,14.10
2019-01-09T10:35:58.988Z,10.30
2019-01-09T10:36:58.965Z,16.60
2019-01-09T10:37:58.936Z,11.90
2019-01-09T10:38:58.916Z,16.10
2019-01-09T10:39:58.886Z,16.90
2019-01-09T10:40:58.875Z,13.80
2019-01-09T10:41:58.844Z,7.80
2019-01-09T10:42:58.809Z,17.10
2019-01-09T10:43:58.794Z,13.60
2019-01-09T10:44:58.759Z,13.20
2019-01-09T10:45:58.738Z,17.40
2019-01-09T10:46:58.718Z,19.10
2019-01-09T10:47:58.691Z,14.60
2019-01-09T10:48:58.658Z,12.80
2019-01-09T10:49:58.636Z,13.20
2019-01-09T10:50:58.619Z,10.20
2019-01-09T10:51:58.586Z,9.40
2019-01-09T10:52:58.560Z,10.30
2019-01-09T10:54:00.599Z,10.00
2019-01-09T10:54:58.513Z,17.00
2019-01-09T10:55:58.494Z,9.20
2019-01-09T10:56:58.480Z,10.80
2019-01-09T10:57:58.439Z,15.20
2019-01-09T10:58:58.414Z,11.60
2019-01-09T10:59:58.397Z,9.80
2019-01-09T11:00:58.520Z,14.20
2019-01-09T11:01:58.348Z,11.60
2019-01-09T11:02:58.315Z,12.30
2019-01-09T11:03:58.296Z,11.70
2019-01-09T11:04:58.270Z,9.80
2019-01-09T11:05:58.242Z,13.60
2019-01-09T11:06:58.219Z,10.80
2019-01-09T11:07:58.194Z,9.10
2019-01-09T11:08:58.178Z,12.50
2019-01-09T11:09:58.157Z,12.10
2019-01-09T11:10:58.124Z,10.70
2019-01-09T11:11:58.100Z,10.00
2019-01-09T11:12:58.084Z,11.60
2019-01-09T11:13:58.051Z,10.20
2019-01-09T11:14:58.026Z,14.10
2019-01-09T11:15:58.003Z,10.70
2019-01-09T11:16:57.977Z,10.30
2019-01-09T11:17:57.954Z,9.40
2019-01-09T11:18:57.942Z,12.30
2019-01-09T11:19:57.915Z,9.90
2019-01-09T11:20:57.882Z,13.40
2019-01-09T11:21:57.860Z,10.90
2019-01-09T11:22:57.836Z,5.60
2019-01-09T11:23:57.809Z,15.20
2019-01-09T11:24:57.783Z,14.30
2019-01-09T11:25:57.762Z,9.50
2019-01-09T11:26:57.738Z,9.00
2019-01-09T11:27:57.723Z,14.40
2019-01-09T11:28:57.690Z,8.90
2019-01-09T11:29:57.682Z,14.70
2019-01-09T11:30:57.645Z,12.70
2019-01-09T11:31:57.620Z,12.40
2019-01-09T11:32:57.594Z,17.20
2019-01-09T11:33:57.570Z,10.30
2019-01-09T11:34:57.549Z,9.00
2019-01-09T11:35:57.527Z,9.60
2019-01-09T11:36:57.597Z,9.80
2019-01-09T11:37:57.489Z,10.30
2019-01-09T11:38:57.448Z,10.60
2019-01-09T11:39:57.429Z,14.10
2019-01-09T11:40:57.399Z,9.50
2019-01-09T11:41:57.384Z,12.80
2019-01-09T11:42:57.358Z,11.80
2019-01-09T11:43:57.326Z,10.50
2019-01-09T11:44:57.302Z,10.40
2019-01-09T11:45:57.279Z,9.70
2019-01-09T11:46:57.254Z,14.90
2019-01-09T11:47:57.231Z,13.80
2019-01-09T11:48:57.205Z,15.40
2019-01-09T11:49:57.182Z,13.80
2019-01-09T11:50:57.166Z,9.60
2019-01-09T11:51:57.150Z,16.60
2019-01-09T11:52:57.111Z,10.30
2019-01-09T11:53:57.086Z,6.30
2019-01-09T11:54:57.063Z,11.70
2019-01-09T11:55:57.039Z,10.50
2019-01-09T11:56:57.031Z,12.70
2019-01-09T11:57:56.989Z,9.80
2019-01-09T11:58:56.966Z,7.80
2019-01-09T11:59:56.944Z,10.10
2019-01-09T12:00:56.919Z,10.70
2019-01-09T12:01:56.904Z,11.40
2019-01-09T12:02:56.882Z,9.20
2019-01-09T12:03:56.846Z,6.80
2019-01-09T12:04:56.823Z,11.00
2019-01-09T12:05:56.805Z,6.90
2019-01-09T12:06:56.782Z,12.10
2019-01-09T12:07:56.754Z,10.30
2019-01-09T12:09:04.271Z,12.60
2019-01-09T12:09:56.701Z,10.10
2019-01-09T12:10:56.725Z,12.70
2019-01-09T12:11:56.654Z,13.00
2019-01-09T12:12:56.628Z,8.80
2019-01-09T12:13:56.606Z,12.30
2019-01-09T12:14:56.587Z,6.60
2019-01-09T12:15:56.565Z,13.20
2019-01-09T12:16:56.532Z,10.50
2019-01-09T12:17:56.511Z,10.20
2019-01-09T12:18:56.490Z,9.20
2019-01-09T12:19:56.463Z,13.60
2019-01-09T12:20:56.436Z,10.80
2019-01-09T12:21:56.423Z,7.50
2019-01-09T12:22:56.392Z,11.70
2019-01-09T12:23:56.366Z,11.90
2019-01-09T12:24:56.347Z,9.10
2019-01-09T12:25:56.315Z,11.10
2019-01-09T12:26:56.301Z,8.80
2019-01-09T12:27:56.277Z,6.30
2019-01-09T12:28:56.251Z,10.60
2019-01-09T12:29:56.220Z,8.30
2019-01-09T12:30:56.195Z,9.60
2019-01-09T12:31:56.179Z,9.70
2019-01-09T12:32:56.149Z,9.20
2019-01-09T12:33:56.133Z,7.40
2019-01-09T12:34:56.111Z,7.20
2019-01-09T12:35:56.082Z,6.70
2019-01-09T12:36:56.050Z,8.70
2019-01-09T12:37:56.136Z,12.10
2019-01-09T12:38:56.002Z,8.30
2019-01-09T12:39:55.987Z,7.70
2019-01-09T12:40:55.955Z,6.70
2019-01-09T12:41:55.936Z,10.90
2019-01-09T12:42:55.918Z,8.70
2019-01-09T12:43:55.893Z,13.20
2019-01-09T12:44:55.859Z,8.20
2019-01-09T12:45:55.833Z,8.30
2019-01-09T12:46:55.809Z,6.20
2019-01-09T12:47:55.788Z,7.50
2019-01-09T12:48:55.759Z,9.60
2019-01-09T12:49:55.737Z,8.50
2019-01-09T12:50:55.713Z,6.80
2019-01-09T12:51:55.697Z,14.30
2019-01-09T12:52:55.666Z,9.20
2019-01-09T12:53:55.642Z,12.40
2019-01-09T12:54:55.617Z,12.10
2019-01-09T12:55:55.592Z,7.20
2019-01-09T12:56:55.565Z,9.80
2019-01-09T12:57:55.543Z,6.70
2019-01-09T12:58:55.517Z,13.10
2019-01-09T12:59:55.512Z,11.70
2019-01-09T13:00:55.476Z,7.60
2019-01-09T13:01:55.444Z,7.10
2019-01-09T13:02:55.436Z,5.50
2019-01-09T13:03:55.411Z,8.90
2019-01-09T13:04:55.371Z,12.40
2019-01-09T13:05:55.347Z,13.60
2019-01-09T13:06:55.328Z,9.50
2019-01-09T13:07:55.312Z,8.30
2019-01-09T13:08:55.274Z,10.60
2019-01-09T13:09:55.254Z,9.10
2019-01-09T13:10:55.226Z,8.60
2019-01-09T13:11:55.201Z,8.80
2019-01-09T13:12:55.186Z,11.60
2019-01-09T13:13:55.151Z,11.60
2019-01-09T13:14:55.143Z,10.30
2019-01-09T13:15:55.108Z,10.00
2019-01-09T13:16:55.133Z,8.40
2019-01-09T13:17:55.064Z,11.90
2019-01-09T13:18:55.035Z,13.00
2019-01-09T13:19:55.011Z,8.60
2019-01-09T13:20:54.979Z,9.50
2019-01-09T13:21:54.971Z,7.90
2019-01-09T13:22:54.934Z,8.30
2019-01-09T13:23:54.924Z,9.40
2019-01-09T13:24:54.885Z,12.50
2019-01-09T13:25:54.858Z,9.80
2019-01-09T13:26:54.836Z,8.60
2019-01-09T13:27:54.819Z,11.30
2019-01-09T13:28:54.785Z,9.70
2019-01-09T13:29:54.761Z,10.20
2019-01-09T13:30:54.752Z,6.30
2019-01-09T13:31:54.714Z,5.60
2019-01-09T13:32:54.690Z,11.20
2019-01-09T13:33:54.672Z,10.30
2019-01-09T13:34:54.638Z,11.30
2019-01-09T13:35:54.623Z,12.30
2019-01-09T13:36:54.591Z,10.40
2019-01-09T13:37:54.565Z,12.30
2019-01-09T13:38:54.542Z,8.90
2019-01-09T13:39:54.659Z,8.80
2019-01-09T13:40:54.511Z,9.60
2019-01-09T13:41:54.470Z,12.20
2019-01-09T13:42:54.461Z,9.10
2019-01-09T13:43:54.421Z,11.30
2019-01-09T13:44:54.408Z,10.70
2019-01-09T13:45:54.393Z,12.60
2019-01-09T13:46:54.347Z,8.10
2019-01-09T13:47:54.332Z,6.70
2019-01-09T13:48:54.314Z,10.10
2019-01-09T13:49:54.287Z,7.50
2019-01-09T13:50:54.251Z,14.40
2019-01-09T13:51:54.237Z,12.10
2019-01-09T13:52:54.208Z,7.90
2019-01-09T13:53:54.186Z,14.30
2019-01-09T13:54:54.168Z,9.00
2019-01-09T13:55:54.129Z,10.30
2019-01-09T13:56:54.118Z,10.80
2019-01-09T13:57:54.078Z,12.80
2019-01-09T13:58:54.054Z,10.70
2019-01-09T13:59:54.033Z,10.80
2019-01-09T14:00:54.005Z,7.80
2019-01-09T14:01:53.990Z,11.20
2019-01-09T14:02:53.961Z,13.50
2019-01-09T14:03:53.932Z,8.20
2019-01-09T14:04:53.907Z,8.90
2019-01-09T14:05:53.885Z,10.30
2019-01-09T14:06:53.861Z,7.80
2019-01-09T14:07:53.834Z,9.30
2019-01-09T14:08:53.824Z,11.50
2019-01-09T14:09:53.792Z,9.50
2019-01-09T14:10:53.760Z,11.70
2019-01-09T14:11:53.743Z,10.10
2019-01-09T14:12:53.713Z,9.90
2019-01-09T14:13:53.688Z,10.60
2019-01-09T14:14:53.662Z,13.80
2019-01-09T14:15:53.637Z,9.30
2019-01-09T14:16:53.622Z,13.20
2019-01-09T14:17:53.618Z,10.50
2019-01-09T14:18:55.295Z,11.00
2019-01-09T14:19:53.542Z,10.20
2019-01-09T14:20:53.516Z,9.20
2019-01-09T14:21:53.498Z,9.80
2019-01-09T14:22:53.466Z,9.20
2019-01-09T14:23:53.444Z,12.00
2019-01-09T14:24:53.420Z,10.90
2019-01-09T14:25:53.393Z,9.70
2019-01-09T14:26:53.367Z,8.60
2019-01-09T14:27:53.342Z,13.50
2019-01-09T14:28:53.324Z,12.50
2019-01-09T14:29:53.299Z,10.10
2019-01-09T14:30:53.278Z,16.70
2019-01-09T14:31:53.244Z,10.50
2019-01-09T14:32:53.227Z,17.90
2019-01-09T14:33:53.194Z,13.60
2019-01-09T14:34:53.177Z,7.20
2019-01-09T14:35:53.145Z,11.40
2019-01-09T14:36:53.124Z,11.90
2019-01-09T14:37:53.095Z,11.30
2019-01-09T14:38:53.070Z,16.70
2019-01-09T14:39:53.052Z,14.50
2019-01-09T14:40:53.025Z,12.70
2019-01-09T14:41:53.003Z,14.80
2019-01-09T14:42:52.971Z,11.50
2019-01-09T14:43:52.952Z,11.00
2019-01-09T14:44:52.937Z,15.70
2019-01-09T14:45:52.903Z,9.60
2019-01-09T14:46:52.884Z,7.10
2019-01-09T14:47:52.848Z,7.30
2019-01-09T14:48:52.820Z,11.70
2019-01-09T14:49:52.799Z,13.10
2019-01-09T14:50:52.779Z,9.10
2019-01-09T14:51:52.745Z,10.80
2019-01-09T14:52:52.734Z,10.70
2019-01-09T14:53:52.698Z,8.80
2019-01-09T14:54:52.671Z,16.50
2019-01-09T14:55:52.646Z,13.40
2019-01-09T14:56:52.623Z,12.50
2019-01-09T14:57:52.607Z,13.10
2019-01-09T14:58:52.579Z,12.40
2019-01-09T14:59:52.556Z,10.30
2019-01-09T15:00:52.523Z,16.20
2019-01-09T15:01:52.500Z,13.30
2019-01-09T15:02:52.580Z,9.00
2019-01-09T15:03:52.481Z,13.20
2019-01-09T15:04:52.429Z,11.80
2019-01-09T15:05:52.449Z,12.70
2019-01-09T15:06:52.370Z,15.00
2019-01-09T15:07:52.351Z,11.60
2019-01-09T15:08:52.321Z,9.80
2019-01-09T15:09:56.707Z,11.90
2019-01-09T15:10:52.285Z,10.90
2019-01-09T15:11:52.250Z,10.80
2019-01-09T15:12:52.220Z,15.20
2019-01-09T15:13:52.194Z,11.70
2019-01-09T15:14:52.171Z,9.50
2019-01-09T15:15:52.145Z,10.80
2019-01-09T15:16:52.121Z,8.70